sensor_id;sensor_type;location;lat;lon;timestamp;temperature;humidity
16305;DHT22;8261;47.678;-122.174;2023-05-14T00:00:15;32.10;67.80
16305;DHT22;8261;47.678;-122.174;2023-05-14T00:02:47;32.00;67.50
16305;DHT22;8261;47.678;-122.174;2023-05-14T00:05:18;32.20;69.30
16305;DHT22;8261;47.678;-122.174;2023-05-14T00:07:50;32.30;67.10
16305;DHT22;8261;47.678;-122.174;2023-05-14T00:10:26;32.20;67.60
16305;DHT22;8261;47.678;-122.174;2023-05-14T00:12:58;32.20;67.40
16305;DHT22;8261;47.678;-122.174;2023-05-14T00:15:29;32.10;67.00
16305;DHT22;8261;47.678;-122.174;2023-05-14T00:18:01;32.00;68.00
16305;DHT22;8261;47.678;-122.174;2023-05-14T00:20:33;32.00;69.10
16305;DHT22;8261;47.678;-122.174;2023-05-14T00:23:04;32.10;69.80
16305;DHT22;8261;47.678;-122.174;2023-05-14T00:25:38;32.00;68.60
16305;DHT22;8261;47.678;-122.174;2023-05-14T00:28:09;31.80;68.50
16305;DHT22;8261;47.678;-122.174;2023-05-14T00:30:40;31.50;68.70
16305;DHT22;8261;47.678;-122.174;2023-05-14T00:33:12;31.50;70.10
16305;DHT22;8261;47.678;-122.174;2023-05-14T00:35:43;31.40;68.90
16305;DHT22;8261;47.678;-122.174;2023-05-14T00:38:15;31.40;68.90
16305;DHT22;8261;47.678;-122.174;2023-05-14T00:40:49;31.30;68.90
16305;DHT22;8261;47.678;-122.174;2023-05-14T00:43:20;31.20;69.80
16305;DHT22;8261;47.678;-122.174;2023-05-14T00:45:55;31.20;70.70
16305;DHT22;8261;47.678;-122.174;2023-05-14T00:48:26;31.30;73.00
16305;DHT22;8261;47.678;-122.174;2023-05-14T00:50:58;31.40;71.60
16305;DHT22;8261;47.678;-122.174;2023-05-14T00:53:32;31.40;70.10
16305;DHT22;8261;47.678;-122.174;2023-05-14T00:56:06;31.10;70.20
16305;DHT22;8261;47.678;-122.174;2023-05-14T00:58:37;31.00;71.10
16305;DHT22;8261;47.678;-122.174;2023-05-14T01:01:08;31.10;70.20
16305;DHT22;8261;47.678;-122.174;2023-05-14T01:03:43;31.50;70.40
16305;DHT22;8261;47.678;-122.174;2023-05-14T01:06:20;31.90;68.90
16305;DHT22;8261;47.678;-122.174;2023-05-14T01:09:00;32.30;69.20
16305;DHT22;8261;47.678;-122.174;2023-05-14T01:11:43;32.80;69.40
16305;DHT22;8261;47.678;-122.174;2023-05-14T01:14:21;33.00;68.10
16305;DHT22;8261;47.678;-122.174;2023-05-14T01:16:57;33.10;66.70
16305;DHT22;8261;47.678;-122.174;2023-05-14T01:19:34;33.20;67.30
16305;DHT22;8261;47.678;-122.174;2023-05-14T01:22:09;33.50;67.30
16305;DHT22;8261;47.678;-122.174;2023-05-14T01:24:40;33.30;65.70
16305;DHT22;8261;47.678;-122.174;2023-05-14T01:27:16;33.30;65.30
16305;DHT22;8261;47.678;-122.174;2023-05-14T01:29:54;33.50;64.50
16305;DHT22;8261;47.678;-122.174;2023-05-14T01:32:29;33.40;64.90
16305;DHT22;8261;47.678;-122.174;2023-05-14T01:35:01;33.50;65.90
16305;DHT22;8261;47.678;-122.174;2023-05-14T01:37:34;33.50;66.00
16305;DHT22;8261;47.678;-122.174;2023-05-14T01:40:08;33.20;66.30
16305;DHT22;8261;47.678;-122.174;2023-05-14T01:42:40;32.90;65.10
16305;DHT22;8261;47.678;-122.174;2023-05-14T01:45:13;32.10;66.50
16305;DHT22;8261;47.678;-122.174;2023-05-14T01:47:45;31.50;66.40
16305;DHT22;8261;47.678;-122.174;2023-05-14T01:50:17;31.00;66.90
16305;DHT22;8261;47.678;-122.174;2023-05-14T01:52:56;30.60;68.20
16305;DHT22;8261;47.678;-122.174;2023-05-14T01:55:28;30.30;68.60
16305;DHT22;8261;47.678;-122.174;2023-05-14T01:57:59;30.10;69.10
16305;DHT22;8261;47.678;-122.174;2023-05-14T02:00:30;30.00;70.40
16305;DHT22;8261;47.678;-122.174;2023-05-14T02:03:02;29.70;69.80
16305;DHT22;8261;47.678;-122.174;2023-05-14T02:05:33;29.40;70.40
16305;DHT22;8261;47.678;-122.174;2023-05-14T02:08:08;29.30;71.70
16305;DHT22;8261;47.678;-122.174;2023-05-14T02:10:39;29.00;73.20
16305;DHT22;8261;47.678;-122.174;2023-05-14T02:13:11;28.80;73.10
16305;DHT22;8261;47.678;-122.174;2023-05-14T02:15:42;28.60;73.50
16305;DHT22;8261;47.678;-122.174;2023-05-14T02:18:14;28.50;74.50
16305;DHT22;8261;47.678;-122.174;2023-05-14T02:20:46;28.40;74.50
16305;DHT22;8261;47.678;-122.174;2023-05-14T02:23:19;28.20;74.80
16305;DHT22;8261;47.678;-122.174;2023-05-14T02:26:04;28.20;75.40
16305;DHT22;8261;47.678;-122.174;2023-05-14T02:28:37;28.00;76.80
16305;DHT22;8261;47.678;-122.174;2023-05-14T02:31:08;27.90;77.10
16305;DHT22;8261;47.678;-122.174;2023-05-14T02:33:40;27.70;78.00
16305;DHT22;8261;47.678;-122.174;2023-05-14T02:36:12;27.60;78.00
16305;DHT22;8261;47.678;-122.174;2023-05-14T02:38:45;27.50;77.80
16305;DHT22;8261;47.678;-122.174;2023-05-14T02:41:16;27.40;78.60
16305;DHT22;8261;47.678;-122.174;2023-05-14T02:43:47;27.30;79.00
16305;DHT22;8261;47.678;-122.174;2023-05-14T02:46:19;27.20;80.80
16305;DHT22;8261;47.678;-122.174;2023-05-14T02:48:51;27.10;79.80
16305;DHT22;8261;47.678;-122.174;2023-05-14T02:51:22;27.00;81.50
16305;DHT22;8261;47.678;-122.174;2023-05-14T02:53:56;26.90;81.70
16305;DHT22;8261;47.678;-122.174;2023-05-14T02:56:28;26.80;82.00
16305;DHT22;8261;47.678;-122.174;2023-05-14T02:59:00;26.70;82.90
16305;DHT22;8261;47.678;-122.174;2023-05-14T03:01:32;26.60;83.30
16305;DHT22;8261;47.678;-122.174;2023-05-14T03:04:03;26.40;82.80
16305;DHT22;8261;47.678;-122.174;2023-05-14T03:06:34;26.30;85.00
16305;DHT22;8261;47.678;-122.174;2023-05-14T03:09:07;26.10;87.50
16305;DHT22;8261;47.678;-122.174;2023-05-14T03:11:40;26.00;86.70
16305;DHT22;8261;47.678;-122.174;2023-05-14T03:14:11;25.80;88.30
16305;DHT22;8261;47.678;-122.174;2023-05-14T03:16:42;25.70;87.30
16305;DHT22;8261;47.678;-122.174;2023-05-14T03:19:14;25.60;88.60
16305;DHT22;8261;47.678;-122.174;2023-05-14T03:21:45;25.50;90.00
16305;DHT22;8261;47.678;-122.174;2023-05-14T03:24:19;25.40;90.50
16305;DHT22;8261;47.678;-122.174;2023-05-14T03:26:51;25.30;90.00
16305;DHT22;8261;47.678;-122.174;2023-05-14T03:29:23;25.20;90.30
16305;DHT22;8261;47.678;-122.174;2023-05-14T03:31:54;25.00;91.40
16305;DHT22;8261;47.678;-122.174;2023-05-14T03:34:26;25.00;90.90
16305;DHT22;8261;47.678;-122.174;2023-05-14T03:36:58;24.80;91.00
16305;DHT22;8261;47.678;-122.174;2023-05-14T03:39:31;24.70;91.70
16305;DHT22;8261;47.678;-122.174;2023-05-14T03:42:03;24.70;91.20
16305;DHT22;8261;47.678;-122.174;2023-05-14T03:44:34;24.60;92.00
16305;DHT22;8261;47.678;-122.174;2023-05-14T03:47:06;24.40;92.70
16305;DHT22;8261;47.678;-122.174;2023-05-14T03:49:37;24.30;93.30
16305;DHT22;8261;47.678;-122.174;2023-05-14T03:52:09;24.20;94.00
16305;DHT22;8261;47.678;-122.174;2023-05-14T03:54:42;24.00;94.20
16305;DHT22;8261;47.678;-122.174;2023-05-14T03:59:49;23.80;95.00
16305;DHT22;8261;47.678;-122.174;2023-05-14T04:02:22;23.60;95.10
16305;DHT22;8261;47.678;-122.174;2023-05-14T04:04:55;23.50;96.10
16305;DHT22;8261;47.678;-122.174;2023-05-14T04:07:51;23.40;96.00
16305;DHT22;8261;47.678;-122.174;2023-05-14T04:10:26;23.30;96.60
16305;DHT22;8261;47.678;-122.174;2023-05-14T04:12:58;23.20;97.10
16305;DHT22;8261;47.678;-122.174;2023-05-14T04:15:33;23.00;97.60
16305;DHT22;8261;47.678;-122.174;2023-05-14T04:18:08;23.00;98.80
16305;DHT22;8261;47.678;-122.174;2023-05-14T04:20:45;22.90;98.60
16305;DHT22;8261;47.678;-122.174;2023-05-14T04:23:57;22.80;98.80
16305;DHT22;8261;47.678;-122.174;2023-05-14T04:26:36;22.70;99.20
16305;DHT22;8261;47.678;-122.174;2023-05-14T04:29:10;22.70;99.60
16305;DHT22;8261;47.678;-122.174;2023-05-14T04:31:45;22.60;99.90
16305;DHT22;8261;47.678;-122.174;2023-05-14T04:34:17;22.50;99.90
16305;DHT22;8261;47.678;-122.174;2023-05-14T04:36:55;22.40;99.90
16305;DHT22;8261;47.678;-122.174;2023-05-14T04:39:27;22.30;99.90
16305;DHT22;8261;47.678;-122.174;2023-05-14T04:42:02;22.20;99.90
16305;DHT22;8261;47.678;-122.174;2023-05-14T04:44:34;22.20;99.90
16305;DHT22;8261;47.678;-122.174;2023-05-14T04:47:10;22.10;99.90
16305;DHT22;8261;47.678;-122.174;2023-05-14T04:56:26;21.90;99.90
16305;DHT22;8261;47.678;-122.174;2023-05-14T04:59:19;21.80;99.90
16305;DHT22;8261;47.678;-122.174;2023-05-14T05:01:50;21.70;99.90
16305;DHT22;8261;47.678;-122.174;2023-05-14T05:04:24;21.60;99.90
16305;DHT22;8261;47.678;-122.174;2023-05-14T05:23:49;21.10;99.90
16305;DHT22;8261;47.678;-122.174;2023-05-14T05:26:21;21.00;99.90
16305;DHT22;8261;47.678;-122.174;2023-05-14T05:53:49;20.30;99.90
16305;DHT22;8261;47.678;-122.174;2023-05-14T06:00:52;20.20;99.90
16305;DHT22;8261;47.678;-122.174;2023-05-14T06:03:30;20.10;99.90
16305;DHT22;8261;47.678;-122.174;2023-05-14T06:06:04;20.00;99.90
16305;DHT22;8261;47.678;-122.174;2023-05-14T06:08:38;20.00;99.90
16305;DHT22;8261;47.678;-122.174;2023-05-14T06:11:36;19.90;99.90
16305;DHT22;8261;47.678;-122.174;2023-05-14T06:14:44;19.80;99.90
16305;DHT22;8261;47.678;-122.174;2023-05-14T06:17:20;19.70;99.90
16305;DHT22;8261;47.678;-122.174;2023-05-14T06:19:54;19.70;99.90
16305;DHT22;8261;47.678;-122.174;2023-05-14T06:22:29;19.60;99.90
16305;DHT22;8261;47.678;-122.174;2023-05-14T06:25:01;19.60;99.90
16305;DHT22;8261;47.678;-122.174;2023-05-14T06:27:34;19.60;99.90
16305;DHT22;8261;47.678;-122.174;2023-05-14T06:30:06;19.50;99.90
16305;DHT22;8261;47.678;-122.174;2023-05-14T06:32:39;19.50;99.90
16305;DHT22;8261;47.678;-122.174;2023-05-14T06:37:56;19.40;99.90
16305;DHT22;8261;47.678;-122.174;2023-05-14T06:40:31;19.30;99.90
16305;DHT22;8261;47.678;-122.174;2023-05-14T06:43:03;19.30;99.90
16305;DHT22;8261;47.678;-122.174;2023-05-14T06:45:37;19.30;99.90
16305;DHT22;8261;47.678;-122.174;2023-05-14T06:48:08;19.20;99.90
16305;DHT22;8261;47.678;-122.174;2023-05-14T06:50:41;19.20;99.90
16305;DHT22;8261;47.678;-122.174;2023-05-14T06:53:15;19.10;99.90
16305;DHT22;8261;47.678;-122.174;2023-05-14T06:55:47;19.00;99.90
16305;DHT22;8261;47.678;-122.174;2023-05-14T06:58:21;19.00;99.90
16305;DHT22;8261;47.678;-122.174;2023-05-14T07:00:53;19.00;99.90
16305;DHT22;8261;47.678;-122.174;2023-05-14T07:03:25;18.90;99.90
16305;DHT22;8261;47.678;-122.174;2023-05-14T07:05:58;18.80;99.90
16305;DHT22;8261;47.678;-122.174;2023-05-14T07:08:33;18.80;99.90
16305;DHT22;8261;47.678;-122.174;2023-05-14T07:11:10;18.70;99.90
16305;DHT22;8261;47.678;-122.174;2023-05-14T07:13:42;18.70;99.90
16305;DHT22;8261;47.678;-122.174;2023-05-14T07:16:14;18.60;99.90
16305;DHT22;8261;47.678;-122.174;2023-05-14T07:18:47;18.60;99.90
16305;DHT22;8261;47.678;-122.174;2023-05-14T07:21:21;18.60;99.90
16305;DHT22;8261;47.678;-122.174;2023-05-14T07:23:56;18.50;99.90
16305;DHT22;8261;47.678;-122.174;2023-05-14T07:26:28;18.50;99.90
16305;DHT22;8261;47.678;-122.174;2023-05-14T07:29:01;18.40;99.90
16305;DHT22;8261;47.678;-122.174;2023-05-14T07:31:33;18.40;99.90
16305;DHT22;8261;47.678;-122.174;2023-05-14T07:34:06;18.40;99.90
16305;DHT22;8261;47.678;-122.174;2023-05-14T07:36:39;18.30;99.90
16305;DHT22;8261;47.678;-122.174;2023-05-14T07:39:14;18.30;99.90
16305;DHT22;8261;47.678;-122.174;2023-05-14T07:41:46;18.20;99.90
16305;DHT22;8261;47.678;-122.174;2023-05-14T07:44:18;18.10;99.90
16305;DHT22;8261;47.678;-122.174;2023-05-14T07:46:50;18.10;99.90
16305;DHT22;8261;47.678;-122.174;2023-05-14T07:49:23;18.00;99.90
16305;DHT22;8261;47.678;-122.174;2023-05-14T07:52:05;18.00;99.90
16305;DHT22;8261;47.678;-122.174;2023-05-14T07:54:39;18.00;99.90
16305;DHT22;8261;47.678;-122.174;2023-05-14T07:57:11;18.00;99.90
16305;DHT22;8261;47.678;-122.174;2023-05-14T07:59:43;17.90;99.90
16305;DHT22;8261;47.678;-122.174;2023-05-14T08:02:14;17.80;99.90
16305;DHT22;8261;47.678;-122.174;2023-05-14T08:04:48;17.80;99.90
16305;DHT22;8261;47.678;-122.174;2023-05-14T08:07:35;17.80;99.90
16305;DHT22;8261;47.678;-122.174;2023-05-14T08:10:10;17.70;99.90
16305;DHT22;8261;47.678;-122.174;2023-05-14T08:12:42;17.70;99.90
16305;DHT22;8261;47.678;-122.174;2023-05-14T08:15:25;17.60;99.90
16305;DHT22;8261;47.678;-122.174;2023-05-14T08:18:11;17.60;99.90
16305;DHT22;8261;47.678;-122.174;2023-05-14T08:20:47;17.50;99.90
16305;DHT22;8261;47.678;-122.174;2023-05-14T08:23:19;17.50;99.90
16305;DHT22;8261;47.678;-122.174;2023-05-14T08:25:54;17.40;99.90
16305;DHT22;8261;47.678;-122.174;2023-05-14T08:28:29;17.30;99.90
16305;DHT22;8261;47.678;-122.174;2023-05-14T08:31:00;17.30;99.90
16305;DHT22;8261;47.678;-122.174;2023-05-14T08:33:32;17.30;99.90
16305;DHT22;8261;47.678;-122.174;2023-05-14T08:36:08;17.30;99.90
16305;DHT22;8261;47.678;-122.174;2023-05-14T08:38:45;17.20;99.90
16305;DHT22;8261;47.678;-122.174;2023-05-14T08:41:20;17.20;99.90
16305;DHT22;8261;47.678;-122.174;2023-05-14T08:43:59;17.10;99.90
16305;DHT22;8261;47.678;-122.174;2023-05-14T08:46:37;17.10;99.90
16305;DHT22;8261;47.678;-122.174;2023-05-14T08:49:16;17.10;99.90
16305;DHT22;8261;47.678;-122.174;2023-05-14T08:51:51;17.10;99.90
16305;DHT22;8261;47.678;-122.174;2023-05-14T08:54:24;17.00;99.90
16305;DHT22;8261;47.678;-122.174;2023-05-14T08:56:59;17.00;99.90
16305;DHT22;8261;47.678;-122.174;2023-05-14T08:59:43;17.00;99.90
16305;DHT22;8261;47.678;-122.174;2023-05-14T09:02:15;17.00;99.90
16305;DHT22;8261;47.678;-122.174;2023-05-14T09:04:50;16.90;99.90
16305;DHT22;8261;47.678;-122.174;2023-05-14T09:07:24;16.90;99.90
16305;DHT22;8261;47.678;-122.174;2023-05-14T09:09:56;16.90;99.90
16305;DHT22;8261;47.678;-122.174;2023-05-14T09:12:58;16.80;99.90
16305;DHT22;8261;47.678;-122.174;2023-05-14T09:15:30;16.70;99.90
16305;DHT22;8261;47.678;-122.174;2023-05-14T09:18:08;16.70;99.90
16305;DHT22;8261;47.678;-122.174;2023-05-14T09:20:40;16.80;99.90
16305;DHT22;8261;47.678;-122.174;2023-05-14T09:23:49;16.70;99.90
16305;DHT22;8261;47.678;-122.174;2023-05-14T09:26:25;16.70;99.90
16305;DHT22;8261;47.678;-122.174;2023-05-14T09:32:25;16.60;99.90
16305;DHT22;8261;47.678;-122.174;2023-05-14T09:34:57;16.50;99.90
16305;DHT22;8261;47.678;-122.174;2023-05-14T09:37:29;16.50;99.90
16305;DHT22;8261;47.678;-122.174;2023-05-14T09:40:09;16.40;99.90
16305;DHT22;8261;47.678;-122.174;2023-05-14T09:42:43;16.30;99.90
16305;DHT22;8261;47.678;-122.174;2023-05-14T09:45:16;16.30;99.90
16305;DHT22;8261;47.678;-122.174;2023-05-14T09:47:51;16.20;99.90
16305;DHT22;8261;47.678;-122.174;2023-05-14T09:50:27;16.20;99.90
16305;DHT22;8261;47.678;-122.174;2023-05-14T09:52:59;16.20;99.90
16305;DHT22;8261;47.678;-122.174;2023-05-14T09:55:33;16.20;99.90
16305;DHT22;8261;47.678;-122.174;2023-05-14T09:58:23;16.00;99.90
16305;DHT22;8261;47.678;-122.174;2023-05-14T10:00:57;16.10;99.90
16305;DHT22;8261;47.678;-122.174;2023-05-14T10:03:48;16.00;99.90
16305;DHT22;8261;47.678;-122.174;2023-05-14T10:06:24;16.00;99.90
16305;DHT22;8261;47.678;-122.174;2023-05-14T10:09:12;15.90;99.90
16305;DHT22;8261;47.678;-122.174;2023-05-14T10:11:45;15.80;99.90
16305;DHT22;8261;47.678;-122.174;2023-05-14T10:14:25;15.80;99.90
16305;DHT22;8261;47.678;-122.174;2023-05-14T10:16:59;15.80;99.90
16305;DHT22;8261;47.678;-122.174;2023-05-14T10:20:03;15.70;99.90
16305;DHT22;8261;47.678;-122.174;2023-05-14T10:22:37;15.70;99.90
16305;DHT22;8261;47.678;-122.174;2023-05-14T10:25:10;15.70;99.90
16305;DHT22;8261;47.678;-122.174;2023-05-14T10:27:42;15.70;99.90
16305;DHT22;8261;47.678;-122.174;2023-05-14T10:30:14;15.70;99.90
16305;DHT22;8261;47.678;-122.174;2023-05-14T10:32:47;15.70;99.90
16305;DHT22;8261;47.678;-122.174;2023-05-14T10:36:03;15.70;99.90
16305;DHT22;8261;47.678;-122.174;2023-05-14T10:38:36;15.60;99.90
16305;DHT22;8261;47.678;-122.174;2023-05-14T10:41:11;15.70;99.90
16305;DHT22;8261;47.678;-122.174;2023-05-14T10:46:19;15.60;99.90
16305;DHT22;8261;47.678;-122.174;2023-05-14T10:51:31;15.60;99.90
16305;DHT22;8261;47.678;-122.174;2023-05-14T10:54:07;15.60;99.90
16305;DHT22;8261;47.678;-122.174;2023-05-14T10:56:44;15.50;99.90
16305;DHT22;8261;47.678;-122.174;2023-05-14T10:59:17;15.50;99.90
16305;DHT22;8261;47.678;-122.174;2023-05-14T11:01:49;15.50;99.90
16305;DHT22;8261;47.678;-122.174;2023-05-14T11:04:23;15.40;99.90
16305;DHT22;8261;47.678;-122.174;2023-05-14T11:12:34;15.30;99.90
16305;DHT22;8261;47.678;-122.174;2023-05-14T11:15:11;15.20;99.90
16305;DHT22;8261;47.678;-122.174;2023-05-14T11:17:48;15.20;99.90
16305;DHT22;8261;47.678;-122.174;2023-05-14T11:20:21;15.20;99.90
16305;DHT22;8261;47.678;-122.174;2023-05-14T11:22:53;15.20;99.90
16305;DHT22;8261;47.678;-122.174;2023-05-14T11:25:27;15.10;99.90
16305;DHT22;8261;47.678;-122.174;2023-05-14T11:31:50;15.10;99.90
16305;DHT22;8261;47.678;-122.174;2023-05-14T11:34:23;15.00;99.90
16305;DHT22;8261;47.678;-122.174;2023-05-14T11:36:56;15.00;99.90
16305;DHT22;8261;47.678;-122.174;2023-05-14T11:39:29;15.00;99.90
16305;DHT22;8261;47.678;-122.174;2023-05-14T11:42:03;14.90;99.90
16305;DHT22;8261;47.678;-122.174;2023-05-14T11:44:35;15.00;99.90
16305;DHT22;8261;47.678;-122.174;2023-05-14T11:47:33;14.80;99.90
16305;DHT22;8261;47.678;-122.174;2023-05-14T11:50:29;14.80;99.90
16305;DHT22;8261;47.678;-122.174;2023-05-14T11:56:01;14.60;99.90
16305;DHT22;8261;47.678;-122.174;2023-05-14T11:58:56;14.50;99.90
16305;DHT22;8261;47.678;-122.174;2023-05-14T12:01:35;14.50;99.90
16305;DHT22;8261;47.678;-122.174;2023-05-14T12:04:10;14.50;99.90
16305;DHT22;8261;47.678;-122.174;2023-05-14T12:06:43;14.40;99.90
16305;DHT22;8261;47.678;-122.174;2023-05-14T12:09:16;14.40;99.90
16305;DHT22;8261;47.678;-122.174;2023-05-14T12:11:49;14.40;99.90
16305;DHT22;8261;47.678;-122.174;2023-05-14T12:14:38;14.40;99.90
16305;DHT22;8261;47.678;-122.174;2023-05-14T12:17:12;14.30;99.90
16305;DHT22;8261;47.678;-122.174;2023-05-14T12:25:08;14.20;99.90
16305;DHT22;8261;47.678;-122.174;2023-05-14T12:30:38;14.10;99.90
16305;DHT22;8261;47.678;-122.174;2023-05-14T12:33:10;14.10;99.90
16305;DHT22;8261;47.678;-122.174;2023-05-14T12:35:54;14.20;99.90
16305;DHT22;8261;47.678;-122.174;2023-05-14T12:38:48;14.20;99.90
16305;DHT22;8261;47.678;-122.174;2023-05-14T12:41:22;14.10;99.90
16305;DHT22;8261;47.678;-122.174;2023-05-14T12:43:54;14.20;99.90
16305;DHT22;8261;47.678;-122.174;2023-05-14T12:46:27;14.20;99.90
16305;DHT22;8261;47.678;-122.174;2023-05-14T12:53:14;14.10;99.90
16305;DHT22;8261;47.678;-122.174;2023-05-14T12:56:22;14.10;99.90
16305;DHT22;8261;47.678;-122.174;2023-05-14T12:58:57;14.10;99.90
16305;DHT22;8261;47.678;-122.174;2023-05-14T13:01:29;14.10;99.90
16305;DHT22;8261;47.678;-122.174;2023-05-14T13:04:02;14.10;99.90
16305;DHT22;8261;47.678;-122.174;2023-05-14T13:06:36;14.00;99.90
16305;DHT22;8261;47.678;-122.174;2023-05-14T13:09:42;14.00;99.90
16305;DHT22;8261;47.678;-122.174;2023-05-14T13:13:02;14.00;99.90
16305;DHT22;8261;47.678;-122.174;2023-05-14T13:15:35;14.00;99.90
16305;DHT22;8261;47.678;-122.174;2023-05-14T13:18:43;14.00;99.90
16305;DHT22;8261;47.678;-122.174;2023-05-14T13:21:15;14.00;99.90
16305;DHT22;8261;47.678;-122.174;2023-05-14T13:23:47;14.10;99.90
16305;DHT22;8261;47.678;-122.174;2023-05-14T13:26:19;14.10;99.90
16305;DHT22;8261;47.678;-122.174;2023-05-14T13:29:26;14.10;99.90
16305;DHT22;8261;47.678;-122.174;2023-05-14T13:32:00;14.10;99.90
16305;DHT22;8261;47.678;-122.174;2023-05-14T13:34:32;14.10;99.90
16305;DHT22;8261;47.678;-122.174;2023-05-14T13:37:04;14.10;99.90
16305;DHT22;8261;47.678;-122.174;2023-05-14T13:39:36;14.20;99.90
16305;DHT22;8261;47.678;-122.174;2023-05-14T13:42:08;14.20;99.90
16305;DHT22;8261;47.678;-122.174;2023-05-14T13:44:43;14.30;99.90
16305;DHT22;8261;47.678;-122.174;2023-05-14T13:50:01;14.40;99.90
16305;DHT22;8261;47.678;-122.174;2023-05-14T13:52:36;14.50;99.90
16305;DHT22;8261;47.678;-122.174;2023-05-14T13:56:08;14.50;99.90
16305;DHT22;8261;47.678;-122.174;2023-05-14T13:58:57;14.60;99.90
16305;DHT22;8261;47.678;-122.174;2023-05-14T14:05:17;14.70;99.90
16305;DHT22;8261;47.678;-122.174;2023-05-14T14:07:50;14.80;99.90
16305;DHT22;8261;47.678;-122.174;2023-05-14T14:11:03;14.90;99.90
16305;DHT22;8261;47.678;-122.174;2023-05-14T14:13:42;15.10;99.90
16305;DHT22;8261;47.678;-122.174;2023-05-14T14:16:14;15.20;99.90
16305;DHT22;8261;47.678;-122.174;2023-05-14T14:18:49;15.30;99.90
16305;DHT22;8261;47.678;-122.174;2023-05-14T14:21:24;15.40;99.90
16305;DHT22;8261;47.678;-122.174;2023-05-14T14:23:56;15.50;99.90
16305;DHT22;8261;47.678;-122.174;2023-05-14T14:26:31;15.60;99.90
16305;DHT22;8261;47.678;-122.174;2023-05-14T14:29:06;15.70;99.90
16305;DHT22;8261;47.678;-122.174;2023-05-14T14:32:25;15.70;99.90
16305;DHT22;8261;47.678;-122.174;2023-05-14T14:34:59;15.90;99.90
16305;DHT22;8261;47.678;-122.174;2023-05-14T14:37:41;15.90;99.90
16305;DHT22;8261;47.678;-122.174;2023-05-14T14:40:17;16.10;99.90
16305;DHT22;8261;47.678;-122.174;2023-05-14T14:42:49;16.20;99.90
16305;DHT22;8261;47.678;-122.174;2023-05-14T14:45:22;16.30;99.90
16305;DHT22;8261;47.678;-122.174;2023-05-14T14:48:26;16.60;99.90
16305;DHT22;8261;47.678;-122.174;2023-05-14T14:50:59;17.20;99.90
16305;DHT22;8261;47.678;-122.174;2023-05-14T14:53:36;17.90;99.90
16305;DHT22;8261;47.678;-122.174;2023-05-14T14:56:08;18.30;99.90
16305;DHT22;8261;47.678;-122.174;2023-05-14T14:58:41;18.80;99.90
16305;DHT22;8261;47.678;-122.174;2023-05-14T15:02:03;19.10;99.90
16305;DHT22;8261;47.678;-122.174;2023-05-14T15:04:57;19.40;99.90
16305;DHT22;8261;47.678;-122.174;2023-05-14T15:07:29;20.00;99.90
16305;DHT22;8261;47.678;-122.174;2023-05-14T15:10:07;20.40;99.90
16305;DHT22;8261;47.678;-122.174;2023-05-14T15:12:41;20.70;99.90
16305;DHT22;8261;47.678;-122.174;2023-05-14T15:15:13;20.80;99.90
16305;DHT22;8261;47.678;-122.174;2023-05-14T15:18:05;20.30;99.90
16305;DHT22;8261;47.678;-122.174;2023-05-14T15:20:51;20.20;99.90
16305;DHT22;8261;47.678;-122.174;2023-05-14T15:23:48;20.00;99.90
16305;DHT22;8261;47.678;-122.174;2023-05-14T15:26:22;20.00;99.90
16305;DHT22;8261;47.678;-122.174;2023-05-14T15:28:57;19.90;99.90
16305;DHT22;8261;47.678;-122.174;2023-05-14T15:33:58;20.20;99.90
16305;DHT22;8261;47.678;-122.174;2023-05-14T15:36:30;20.30;99.90
16305;DHT22;8261;47.678;-122.174;2023-05-14T15:39:03;20.30;99.90
16305;DHT22;8261;47.678;-122.174;2023-05-14T15:41:40;20.30;99.90
16305;DHT22;8261;47.678;-122.174;2023-05-14T15:44:15;20.30;99.90
16305;DHT22;8261;47.678;-122.174;2023-05-14T15:46:48;20.40;99.90
16305;DHT22;8261;47.678;-122.174;2023-05-14T15:49:20;20.40;99.90
16305;DHT22;8261;47.678;-122.174;2023-05-14T15:51:52;20.40;99.90
16305;DHT22;8261;47.678;-122.174;2023-05-14T15:54:26;20.40;99.90
16305;DHT22;8261;47.678;-122.174;2023-05-14T16:05:04;20.60;99.90
16305;DHT22;8261;47.678;-122.174;2023-05-14T16:07:38;20.60;99.90
16305;DHT22;8261;47.678;-122.174;2023-05-14T16:10:19;20.70;99.90
16305;DHT22;8261;47.678;-122.174;2023-05-14T16:12:51;20.80;99.90
16305;DHT22;8261;47.678;-122.174;2023-05-14T16:15:23;20.90;99.90
16305;DHT22;8261;47.678;-122.174;2023-05-14T16:17:54;20.90;99.90
16305;DHT22;8261;47.678;-122.174;2023-05-14T16:20:28;21.00;99.90
16305;DHT22;8261;47.678;-122.174;2023-05-14T16:22:59;21.10;99.90
16305;DHT22;8261;47.678;-122.174;2023-05-14T16:25:30;21.20;99.90
16305;DHT22;8261;47.678;-122.174;2023-05-14T16:28:02;21.30;99.90
16305;DHT22;8261;47.678;-122.174;2023-05-14T16:30:33;21.40;99.90
16305;DHT22;8261;47.678;-122.174;2023-05-14T16:33:05;21.50;99.90
16305;DHT22;8261;47.678;-122.174;2023-05-14T16:35:39;21.50;99.90
16305;DHT22;8261;47.678;-122.174;2023-05-14T16:38:11;21.70;99.90
16305;DHT22;8261;47.678;-122.174;2023-05-14T16:40:42;21.80;99.90
16305;DHT22;8261;47.678;-122.174;2023-05-14T16:43:14;21.80;99.90
16305;DHT22;8261;47.678;-122.174;2023-05-14T16:45:45;22.00;99.90
16305;DHT22;8261;47.678;-122.174;2023-05-14T16:48:17;22.20;99.90
16305;DHT22;8261;47.678;-122.174;2023-05-14T16:50:51;22.30;99.90
16305;DHT22;8261;47.678;-122.174;2023-05-14T16:53:24;22.50;99.90
16305;DHT22;8261;47.678;-122.174;2023-05-14T16:55:56;22.70;99.90
16305;DHT22;8261;47.678;-122.174;2023-05-14T16:58:28;22.80;99.90
16305;DHT22;8261;47.678;-122.174;2023-05-14T17:01:01;22.90;99.90
16305;DHT22;8261;47.678;-122.174;2023-05-14T17:03:36;23.00;99.90
16305;DHT22;8261;47.678;-122.174;2023-05-14T17:06:14;23.10;99.90
16305;DHT22;8261;47.678;-122.174;2023-05-14T17:08:45;23.10;99.90
16305;DHT22;8261;47.678;-122.174;2023-05-14T17:11:17;23.20;99.90
16305;DHT22;8261;47.678;-122.174;2023-05-14T17:13:50;23.30;99.90
16305;DHT22;8261;47.678;-122.174;2023-05-14T17:16:22;23.40;99.90
16305;DHT22;8261;47.678;-122.174;2023-05-14T17:18:53;23.60;99.90
16305;DHT22;8261;47.678;-122.174;2023-05-14T17:21:27;23.70;99.90
16305;DHT22;8261;47.678;-122.174;2023-05-14T17:23:59;23.70;99.90
16305;DHT22;8261;47.678;-122.174;2023-05-14T17:26:30;23.70;99.90
16305;DHT22;8261;47.678;-122.174;2023-05-14T17:29:02;23.70;99.90
16305;DHT22;8261;47.678;-122.174;2023-05-14T17:31:33;23.70;99.90
16305;DHT22;8261;47.678;-122.174;2023-05-14T17:34:05;23.80;99.90
16305;DHT22;8261;47.678;-122.174;2023-05-14T17:36:38;23.90;99.90
16305;DHT22;8261;47.678;-122.174;2023-05-14T17:39:10;24.10;99.90
16305;DHT22;8261;47.678;-122.174;2023-05-14T17:41:42;24.30;99.90
16305;DHT22;8261;47.678;-122.174;2023-05-14T17:44:13;24.50;99.90